createdAt,value
2018-08-25T00:01:15.801Z,40.90
2018-08-25T00:03:45.823Z,41.51
2018-08-25T00:06:15.153Z,40.74
2018-08-25T00:08:44.724Z,40.90
2018-08-25T00:11:15.771Z,41.43
2018-08-25T00:13:45.339Z,40.84
2018-08-25T00:16:16.320Z,40.74
2018-08-25T00:21:34.289Z,42.15
2018-08-25T00:24:03.841Z,42.27
2018-08-25T00:26:33.083Z,41.59
2018-08-25T00:29:05.139Z,41.65
2018-08-25T00:31:34.578Z,41.56
2018-08-25T00:34:05.040Z,41.78
2018-08-25T00:36:35.543Z,41.81
2018-08-25T00:42:16.843Z,41.74
2018-08-25T00:44:47.382Z,41.83
2018-08-25T00:47:18.315Z,42.18
2018-08-25T00:49:48.846Z,42.46
2018-08-25T00:52:18.415Z,42.40
2018-08-25T00:55:03.451Z,42.10
2018-08-25T00:57:38.672Z,42.12
2018-08-25T01:00:14.334Z,42.84
2018-08-25T01:02:43.996Z,42.39
2018-08-25T01:05:13.986Z,43.27
2018-08-25T01:07:43.610Z,43.20
2018-08-25T01:10:12.945Z,42.98
2018-08-25T01:12:43.997Z,42.96
2018-08-25T01:15:17.456Z,43.03
2018-08-25T01:17:47.511Z,43.78
2018-08-25T01:20:21.151Z,43.10
2018-08-25T01:22:51.034Z,43.46
2018-08-25T01:25:21.588Z,43.03
2018-08-25T01:27:53.030Z,43.47
2018-08-25T01:30:25.701Z,44.00
2018-08-25T01:32:59.924Z,43.33
2018-08-25T01:35:30.556Z,43.97
2018-08-25T01:38:00.394Z,43.63
2018-08-25T01:40:30.118Z,44.60
2018-08-25T01:43:02.098Z,43.86
2018-08-25T01:45:32.642Z,44.03
2018-08-25T01:48:02.477Z,44.21
2018-08-25T01:50:32.649Z,44.32
2018-08-25T01:53:03.600Z,44.50
2018-08-25T01:55:33.870Z,44.08
2018-08-25T01:58:03.491Z,44.83
2018-08-25T02:00:33.638Z,44.72
2018-08-25T02:03:03.962Z,45.30
2018-08-25T02:05:33.310Z,44.81
2018-08-25T02:08:04.880Z,45.20
2018-08-25T02:10:35.056Z,44.36
2018-08-25T02:13:06.194Z,44.63
2018-08-25T02:15:37.728Z,45.09
2018-08-25T02:18:12.504Z,45.96
2018-08-25T02:20:42.365Z,46.05
2018-08-25T02:23:12.262Z,46.96
2018-08-25T02:25:42.881Z,46.55
2018-08-25T02:28:12.899Z,46.51
2018-08-25T02:30:43.532Z,47.03
2018-08-25T02:33:14.040Z,47.18
2018-08-25T02:35:46.146Z,47.41
2018-08-25T02:38:16.192Z,47.39
2018-08-25T02:40:45.664Z,46.66
2018-08-25T02:43:14.814Z,47.68
2018-08-25T02:45:44.858Z,46.99
2018-08-25T02:48:15.044Z,46.84
2018-08-25T02:50:44.321Z,48.59
2018-08-25T02:53:13.918Z,48.59
2018-08-25T02:55:43.440Z,49.29
2018-08-25T02:58:13.292Z,50.98
2018-08-25T03:00:45.738Z,52.66
2018-08-25T03:03:16.389Z,54.18
2018-08-25T03:05:48.031Z,56.29
2018-08-25T03:08:18.662Z,57.18
2018-08-25T03:10:48.591Z,58.42
2018-08-25T03:13:19.588Z,57.75
2018-08-25T03:15:50.318Z,58.77
2018-08-25T03:18:19.640Z,59.44
2018-08-25T03:20:58.969Z,59.13
2018-08-25T03:23:31.282Z,59.98
2018-08-25T03:26:02.244Z,59.23
2018-08-25T03:28:31.819Z,60.32
2018-08-25T03:31:01.796Z,61.72
2018-08-25T03:33:31.329Z,63.39
2018-08-25T03:36:00.889Z,65.68
2018-08-25T03:38:30.479Z,65.88
2018-08-25T03:40:59.847Z,65.71
2018-08-25T03:43:29.378Z,66.22
2018-08-25T03:46:00.361Z,67.83
2018-08-25T03:48:29.790Z,67.48
2018-08-25T03:50:58.989Z,67.67
2018-08-25T03:53:29.565Z,68.16
2018-08-25T03:55:59.217Z,67.28
2018-08-25T03:58:29.885Z,67.90
2018-08-25T04:01:00.488Z,67.52
2018-08-25T04:03:30.462Z,67.55
2018-08-25T04:06:00.428Z,68.25
2018-08-25T04:08:31.048Z,67.91
2018-08-25T04:11:01.730Z,68.51
2018-08-25T04:13:33.265Z,68.85
2018-08-25T04:16:04.421Z,68.09
2018-08-25T04:18:34.710Z,67.81
2018-08-25T04:21:04.801Z,68.29
2018-08-25T04:23:34.159Z,67.84
2018-08-25T04:26:03.728Z,67.57
2018-08-25T04:28:33.020Z,67.55
2018-08-25T04:31:03.873Z,68.11
2018-08-25T04:33:33.785Z,69.38
2018-08-25T04:36:11.599Z,68.18
2018-08-25T04:38:42.620Z,68.77
2018-08-25T04:41:12.552Z,68.75
2018-08-25T04:43:43.233Z,68.81
2018-08-25T04:46:13.825Z,69.76
2018-08-25T04:48:44.608Z,69.82
2018-08-25T04:51:15.349Z,70.59
2018-08-25T04:53:54.293Z,69.88
2018-08-25T04:56:23.992Z,69.76
2018-08-25T04:58:53.367Z,69.66
2018-08-25T05:01:23.667Z,69.67
2018-08-25T05:03:52.830Z,68.67
2018-08-25T05:06:24.069Z,69.13
2018-08-25T05:08:57.526Z,69.37
2018-08-25T05:11:27.154Z,69.36
2018-08-25T05:13:57.040Z,70.38
2018-08-25T05:16:26.872Z,69.43
2018-08-25T05:18:56.032Z,68.63
2018-08-25T05:21:25.598Z,68.38
2018-08-25T05:23:55.344Z,67.89
2018-08-25T05:26:26.335Z,67.80
2018-08-25T05:28:56.145Z,68.33
2018-08-25T05:31:25.920Z,67.52
2018-08-25T05:33:55.574Z,66.68
2018-08-25T05:36:25.759Z,66.13
2018-08-25T05:39:04.987Z,65.17
2018-08-25T05:41:35.977Z,64.85
2018-08-25T05:44:06.875Z,65.67
2018-08-25T05:46:36.888Z,65.99
2018-08-25T05:49:06.187Z,66.10
2018-08-25T05:51:37.511Z,65.95
2018-08-25T05:54:07.948Z,64.61
2018-08-25T05:56:38.238Z,65.40
2018-08-25T05:59:08.411Z,65.79
2018-08-25T06:01:38.197Z,63.97
2018-08-25T06:04:07.813Z,64.18
2018-08-25T06:06:38.396Z,62.71
2018-08-25T06:09:14.575Z,60.91
2018-08-25T06:11:45.358Z,61.27
2018-08-25T06:14:18.131Z,61.18
2018-08-25T06:16:47.574Z,62.06
2018-08-25T06:19:17.346Z,62.60
2018-08-25T06:21:47.959Z,62.55
2018-08-25T06:24:17.816Z,61.80
2018-08-25T06:26:49.604Z,61.36
2018-08-25T06:29:19.715Z,61.02
2018-08-25T06:31:50.426Z,61.80
2018-08-25T06:34:20.898Z,62.10
2018-08-25T06:36:51.451Z,61.89
2018-08-25T06:39:24.568Z,61.86
2018-08-25T06:41:56.436Z,61.98
2018-08-25T06:44:26.514Z,62.01
2018-08-25T06:46:57.469Z,61.28
2018-08-25T06:49:30.677Z,59.44
2018-08-25T06:52:00.402Z,57.51
2018-08-25T06:54:30.218Z,59.19
2018-08-25T06:57:01.543Z,58.93
2018-08-25T07:02:15.826Z,59.65
2018-08-25T07:04:45.295Z,58.96
2018-08-25T07:07:15.435Z,59.71
2018-08-25T07:09:45.625Z,58.02
2018-08-25T07:12:18.239Z,56.95
2018-08-25T07:14:47.649Z,58.63
2018-08-25T07:17:17.155Z,59.06
2018-08-25T07:19:47.576Z,59.31
2018-08-25T07:24:52.529Z,59.29
2018-08-25T07:27:22.494Z,59.02
2018-08-25T07:29:52.319Z,59.33
2018-08-25T07:32:21.987Z,59.18
2018-08-25T07:34:51.512Z,59.10
2018-08-25T07:37:20.804Z,59.33
2018-08-25T07:42:30.102Z,59.01
2018-08-25T07:45:09.276Z,58.75
2018-08-25T07:47:41.269Z,57.73
2018-08-25T07:50:13.579Z,55.65
2018-08-25T07:52:47.487Z,56.32
2018-08-25T07:55:16.837Z,55.09
2018-08-25T07:57:46.132Z,55.52
2018-08-25T08:00:17.945Z,54.88
2018-08-25T08:02:50.145Z,55.04
2018-08-25T08:08:09.016Z,53.77
2018-08-25T08:10:48.089Z,54.36
2018-08-25T08:13:17.531Z,53.80
2018-08-25T08:15:48.441Z,53.04
2018-08-25T08:18:19.043Z,53.48
2018-08-25T08:20:50.077Z,52.44
2018-08-25T08:23:19.479Z,52.83
2018-08-25T08:25:51.315Z,52.41
2018-08-25T08:28:21.464Z,52.57
2018-08-25T08:30:53.613Z,50.75
2018-08-25T08:33:26.718Z,50.67
2018-08-25T08:36:02.608Z,50.47
2018-08-25T08:38:40.682Z,48.42
2018-08-25T08:41:12.355Z,46.88
2018-08-25T08:43:46.172Z,47.51
2018-08-25T08:46:24.288Z,46.11
2018-08-25T08:48:55.999Z,45.32
2018-08-25T08:51:27.804Z,44.59
2018-08-25T08:54:13.607Z,43.79
2018-08-25T09:02:45.646Z,41.88
2018-08-25T09:05:23.647Z,43.72
2018-08-25T09:07:55.744Z,44.32
2018-08-25T09:10:29.624Z,44.05
2018-08-25T09:12:59.758Z,41.86
2018-08-25T09:15:34.476Z,43.08
2018-08-25T09:18:06.289Z,43.07
2018-08-25T09:20:36.193Z,41.92
2018-08-25T09:23:11.335Z,41.35
2018-08-25T09:25:42.522Z,41.48
2018-08-25T09:28:13.807Z,41.96
2018-08-25T09:30:47.598Z,42.04
2018-08-25T09:33:18.860Z,40.25
2018-08-25T09:35:57.832Z,41.44
2018-08-25T09:38:33.543Z,40.25
2018-08-25T09:41:07.416Z,40.12
2018-08-25T09:43:37.609Z,39.68
2018-08-25T09:46:07.885Z,38.89
2018-08-25T09:48:38.585Z,39.01
2018-08-25T09:51:08.772Z,38.91
2018-08-25T09:53:41.045Z,39.02
2018-08-25T09:56:12.462Z,38.09
2018-08-25T09:58:45.484Z,39.69
2018-08-25T10:01:21.146Z,39.41
2018-08-25T10:03:53.547Z,41.56
2018-08-25T10:06:23.872Z,40.56
2018-08-25T10:08:54.491Z,39.18
2018-08-25T10:11:25.130Z,39.20
2018-08-25T10:13:55.074Z,38.55
2018-08-25T10:16:26.047Z,38.16
2018-08-25T10:18:57.934Z,38.90
2018-08-25T10:21:31.677Z,39.75
2018-08-25T10:24:15.547Z,39.46
2018-08-25T10:26:51.808Z,39.31
2018-08-25T10:29:22.531Z,37.10
2018-08-25T10:31:52.065Z,35.86
2018-08-25T10:34:22.881Z,35.66
2018-08-25T10:36:53.454Z,36.52
2018-08-25T10:39:26.812Z,37.09
2018-08-25T10:41:58.459Z,37.14
2018-08-25T10:44:33.357Z,37.72
2018-08-25T10:47:09.137Z,37.09
2018-08-25T10:49:40.765Z,35.56
2018-08-25T10:52:11.249Z,35.24
2018-08-25T10:54:41.173Z,35.17
2018-08-25T10:57:11.357Z,35.57
2018-08-25T10:59:44.657Z,36.24
2018-08-25T11:02:28.979Z,34.52
2018-08-25T11:05:04.732Z,35.66
2018-08-25T11:07:38.556Z,36.17
2018-08-25T11:12:51.009Z,35.12
2018-08-25T11:15:21.398Z,36.00
2018-08-25T11:17:50.826Z,36.47
2018-08-25T11:20:21.245Z,37.78
2018-08-25T11:22:52.649Z,38.87
2018-08-25T11:25:25.854Z,38.61
2018-08-25T11:27:55.810Z,37.27
2018-08-25T11:30:28.553Z,37.29
2018-08-25T11:33:10.359Z,36.09
2018-08-25T11:35:41.878Z,36.22
2018-08-25T11:38:12.475Z,35.79
2018-08-25T11:40:46.707Z,35.68
2018-08-25T11:43:18.151Z,35.96
2018-08-25T11:45:48.779Z,35.85
2018-08-25T11:48:19.609Z,37.74
2018-08-25T11:50:50.826Z,38.40
2018-08-25T11:53:21.150Z,37.57
2018-08-25T11:55:51.258Z,37.15
2018-08-25T11:58:20.652Z,35.79
2018-08-25T12:00:58.082Z,35.13
2018-08-25T12:03:30.136Z,33.48
2018-08-25T12:06:01.853Z,34.41
2018-08-25T12:08:32.785Z,33.46
2018-08-25T12:11:05.759Z,34.22
2018-08-25T12:16:06.949Z,33.60
2018-08-25T12:18:41.750Z,34.56
2018-08-25T12:21:12.910Z,35.43
2018-08-25T12:23:43.262Z,35.68
2018-08-25T12:26:29.504Z,37.42
2018-08-25T12:29:00.291Z,38.32
2018-08-25T12:31:33.242Z,38.98
2018-08-25T12:34:03.497Z,38.58
2018-08-25T12:36:35.232Z,37.97
2018-08-25T12:39:08.533Z,35.75
2018-08-25T12:41:39.439Z,36.34
2018-08-25T12:44:09.147Z,36.28
2018-08-25T12:46:41.433Z,38.43
2018-08-25T12:49:14.136Z,38.17
2018-08-25T12:51:45.096Z,39.13
2018-08-25T12:54:14.738Z,39.67
2018-08-25T12:56:53.929Z,38.40
2018-08-25T12:59:27.301Z,37.97
2018-08-25T13:02:03.049Z,37.14
2018-08-25T13:04:40.965Z,36.55
2018-08-25T13:07:11.296Z,35.52
2018-08-25T13:09:45.721Z,35.39
2018-08-25T13:12:17.415Z,34.95
2018-08-25T13:14:50.848Z,34.96
2018-08-25T13:17:24.582Z,36.87
2018-08-25T13:19:55.773Z,37.49
2018-08-25T13:22:27.650Z,38.57
2018-08-25T13:24:58.987Z,39.77
2018-08-25T13:27:31.308Z,40.18
2018-08-25T13:30:04.706Z,41.12
2018-08-25T13:32:39.057Z,40.51
2018-08-25T13:35:09.674Z,37.66
2018-08-25T13:37:45.111Z,37.39
2018-08-25T13:40:17.141Z,35.72
2018-08-25T13:42:48.531Z,37.50
2018-08-25T13:45:20.067Z,37.60
2018-08-25T13:47:54.851Z,38.69
2018-08-25T13:50:26.076Z,39.22
2018-08-25T13:52:55.992Z,39.03
2018-08-25T13:55:25.244Z,38.35
2018-08-25T13:57:54.714Z,38.86
2018-08-25T14:00:24.631Z,38.94
2018-08-25T14:02:54.673Z,37.34
2018-08-25T14:05:29.038Z,38.04
2018-08-25T14:07:59.039Z,37.83
2018-08-25T14:10:30.651Z,39.26
2018-08-25T14:13:01.315Z,39.38
2018-08-25T14:15:36.190Z,39.54
2018-08-25T14:18:05.911Z,36.95
2018-08-25T14:20:36.093Z,35.77
2018-08-25T14:23:06.865Z,34.68
2018-08-25T14:25:38.916Z,34.04
2018-08-25T14:28:23.492Z,33.48
2018-08-25T14:30:55.044Z,35.16
2018-08-25T14:33:30.339Z,35.82
2018-08-25T14:35:59.811Z,35.16
2018-08-25T14:38:32.143Z,34.40
2018-08-25T14:41:04.196Z,34.56
2018-08-25T14:43:35.292Z,35.81
2018-08-25T14:46:08.006Z,37.15
2018-08-25T14:48:37.408Z,38.12
2018-08-25T14:51:08.768Z,38.75
2018-08-25T14:53:39.867Z,40.28
2018-08-25T14:56:12.326Z,42.19
2018-08-25T14:58:43.461Z,46.92
2018-08-25T15:01:14.976Z,49.50
2018-08-25T15:03:46.250Z,52.06
2018-08-25T15:06:16.721Z,54.64
2018-08-25T15:08:46.653Z,56.28
2018-08-25T15:11:18.946Z,55.11
2018-08-25T15:13:50.063Z,54.34
2018-08-25T15:16:21.507Z,53.35
2018-08-25T15:18:57.521Z,52.74
2018-08-25T15:21:32.018Z,50.46
2018-08-25T15:26:53.057Z,48.35
2018-08-25T15:29:22.522Z,48.77
2018-08-25T15:31:55.223Z,47.93
2018-08-25T15:34:27.419Z,46.77
2018-08-25T15:36:58.496Z,47.62
2018-08-25T15:39:31.777Z,48.30
2018-08-25T15:42:01.274Z,48.94
2018-08-25T15:44:32.245Z,48.59
2018-08-25T15:47:03.028Z,49.30
2018-08-25T15:49:32.732Z,48.59
2018-08-25T15:52:03.391Z,48.24
2018-08-25T15:54:33.756Z,48.27
2018-08-25T15:57:08.568Z,48.39
2018-08-25T15:59:47.151Z,48.13
2018-08-25T16:02:19.421Z,47.72
2018-08-25T16:04:49.610Z,45.34
2018-08-25T16:07:19.794Z,42.03
2018-08-25T16:10:15.084Z,42.99
2018-08-25T16:12:47.457Z,40.76
2018-08-25T16:15:26.090Z,40.88
2018-08-25T16:17:57.002Z,40.98
2018-08-25T16:20:27.909Z,40.52
2018-08-25T16:22:59.776Z,41.62
2018-08-25T16:25:29.672Z,41.09
2018-08-25T16:27:59.012Z,40.54
2018-08-25T16:30:28.896Z,41.01
2018-08-25T16:33:00.699Z,39.80
2018-08-25T16:35:35.522Z,40.27
2018-08-25T16:38:08.677Z,40.45
2018-08-25T16:40:40.726Z,40.54
2018-08-25T16:43:12.833Z,40.34
2018-08-25T16:45:45.454Z,40.25
2018-08-25T16:48:16.462Z,39.89
2018-08-25T16:50:52.549Z,39.63
2018-08-25T16:53:22.548Z,39.79
2018-08-25T16:55:56.575Z,40.21
2018-08-25T16:58:31.667Z,41.08
2018-08-25T17:03:38.492Z,40.25
2018-08-25T17:06:11.240Z,40.68
2018-08-25T17:08:42.659Z,40.93
2018-08-25T17:11:21.282Z,40.08
2018-08-25T17:13:54.045Z,40.75
2018-08-25T17:16:24.836Z,40.57
2018-08-25T17:18:56.841Z,40.35
2018-08-25T17:21:27.953Z,40.32
2018-08-25T17:24:00.113Z,40.55
2018-08-25T17:26:31.365Z,40.94
2018-08-25T17:29:01.359Z,41.36
2018-08-25T17:31:36.329Z,41.81
2018-08-25T17:34:07.373Z,41.51
2018-08-25T17:36:40.577Z,42.31
2018-08-25T17:39:16.419Z,42.45
2018-08-25T17:41:52.484Z,43.18
2018-08-25T17:44:24.027Z,46.81
2018-08-25T17:47:04.764Z,46.05
2018-08-25T17:49:35.532Z,46.92
2018-08-25T17:52:14.424Z,47.50
2018-08-25T17:54:55.288Z,48.21
2018-08-25T17:57:29.112Z,48.18
2018-08-25T18:00:16.260Z,49.83
2018-08-25T18:02:56.868Z,50.38
2018-08-25T18:05:39.489Z,50.80
2018-08-25T18:08:16.550Z,50.45
2018-08-25T18:10:49.093Z,51.89
2018-08-25T18:13:21.992Z,50.46
2018-08-25T18:18:44.145Z,50.76
2018-08-25T18:21:14.903Z,50.19
2018-08-25T18:23:47.888Z,49.29
2018-08-25T18:26:23.628Z,49.78
2018-08-25T18:28:53.238Z,49.47
2018-08-25T18:31:24.934Z,48.68
2018-08-25T18:33:55.023Z,49.55
2018-08-25T18:36:24.624Z,47.96
2018-08-25T18:38:54.966Z,49.22
2018-08-25T18:41:24.850Z,49.08
2018-08-25T18:43:55.996Z,48.37
2018-08-25T18:46:29.454Z,48.47
2018-08-25T18:49:01.941Z,49.06
2018-08-25T18:51:31.430Z,48.24
2018-08-25T18:54:01.628Z,49.18
2018-08-25T18:56:31.470Z,49.21
2018-08-25T18:59:04.091Z,49.53
2018-08-25T19:01:33.649Z,50.03
2018-08-25T19:04:03.736Z,49.37
2018-08-25T19:06:35.830Z,49.16
2018-08-25T19:09:10.538Z,49.53
2018-08-25T19:11:41.611Z,49.30
2018-08-25T19:14:14.688Z,49.79
2018-08-25T19:16:50.330Z,49.07
2018-08-25T19:19:21.271Z,49.00
2018-08-25T19:21:53.200Z,49.42
2018-08-25T19:24:27.474Z,50.63
2018-08-25T19:26:57.205Z,51.16
2018-08-25T19:29:28.681Z,51.11
2018-08-25T19:31:58.398Z,51.25
2018-08-25T19:34:31.591Z,51.37
2018-08-25T19:37:04.104Z,51.61
2018-08-25T19:39:36.354Z,51.27
2018-08-25T19:42:08.807Z,50.58
2018-08-25T19:44:40.308Z,50.52
2018-08-25T19:47:11.891Z,51.29
2018-08-25T19:49:42.732Z,50.90
2018-08-25T19:52:15.825Z,50.77
2018-08-25T19:54:47.822Z,50.63
2018-08-25T19:57:31.820Z,50.77
2018-08-25T20:00:10.607Z,51.24
2018-08-25T20:02:43.928Z,50.51
2018-08-25T20:05:14.757Z,51.30
2018-08-25T20:07:46.762Z,51.05
2018-08-25T20:10:16.569Z,51.58
2018-08-25T20:12:48.649Z,51.03
2018-08-25T20:15:28.038Z,51.49
2018-08-25T20:18:01.317Z,51.42
2018-08-25T20:20:36.704Z,51.37
2018-08-25T20:23:10.763Z,51.80
2018-08-25T20:25:43.261Z,51.58
2018-08-25T20:28:13.461Z,52.12
2018-08-25T20:30:46.510Z,52.04
2018-08-25T20:33:30.478Z,52.10
2018-08-25T20:36:09.576Z,52.31
2018-08-25T20:38:44.226Z,52.60
2018-08-25T20:41:15.225Z,52.76
2018-08-25T20:43:46.292Z,52.78
2018-08-25T20:46:16.722Z,52.92
2018-08-25T20:48:48.192Z,52.39
2018-08-25T20:51:18.933Z,52.46
2018-08-25T20:53:50.792Z,52.87
2018-08-25T20:56:22.097Z,51.82
2018-08-25T20:58:52.062Z,52.01
2018-08-25T21:01:22.585Z,52.54
2018-08-25T21:03:55.697Z,52.52
2018-08-25T21:06:31.753Z,51.71
2018-08-25T21:09:04.771Z,51.63
2018-08-25T21:11:40.334Z,51.55
2018-08-25T21:14:11.205Z,52.12
2018-08-25T21:16:42.355Z,52.47
2018-08-25T21:19:15.293Z,52.08
2018-08-25T21:21:49.921Z,52.78
2018-08-25T21:24:28.659Z,52.57
2018-08-25T21:27:05.271Z,52.66
2018-08-25T21:29:36.080Z,53.21
2018-08-25T21:32:09.177Z,53.21
2018-08-25T21:34:43.608Z,52.39
2018-08-25T21:37:13.412Z,52.87
2018-08-25T21:39:44.915Z,52.55
2018-08-25T21:42:15.647Z,52.56
2018-08-25T21:44:47.452Z,52.46
2018-08-25T21:47:28.280Z,52.82
2018-08-25T21:49:58.494Z,51.95
2018-08-25T21:52:30.563Z,51.99
2018-08-25T21:55:00.815Z,52.50
2018-08-25T21:57:31.732Z,52.69
2018-08-25T22:00:06.108Z,52.42
2018-08-25T22:02:39.023Z,52.75
2018-08-25T22:05:08.395Z,52.27
2018-08-25T22:07:40.793Z,52.11
2018-08-25T22:10:11.489Z,51.95
2018-08-25T22:12:42.484Z,52.59
2018-08-25T22:15:16.881Z,52.81
2018-08-25T22:17:46.178Z,52.78
2018-08-25T22:20:17.260Z,52.63
2018-08-25T22:22:47.565Z,52.60
2018-08-25T22:25:17.923Z,52.82
2018-08-25T22:27:48.238Z,52.55
2018-08-25T22:30:18.193Z,53.48
2018-08-25T22:32:48.935Z,53.41
2018-08-25T22:35:18.569Z,54.15
2018-08-25T22:37:49.401Z,53.41
2018-08-25T22:40:20.457Z,53.30
2018-08-25T22:42:51.744Z,54.24
2018-08-25T22:45:21.644Z,54.27
2018-08-25T22:47:51.971Z,55.43
2018-08-25T22:50:21.336Z,54.83
2018-08-25T22:52:53.348Z,55.12
2018-08-25T22:55:25.402Z,56.12
2018-08-25T22:57:55.878Z,55.78
2018-08-25T23:00:25.428Z,56.04
2018-08-25T23:03:13.224Z,56.09
2018-08-25T23:05:45.773Z,55.21
2018-08-25T23:08:16.530Z,56.13
2018-08-25T23:10:46.537Z,55.84
2018-08-25T23:13:16.354Z,55.66
2018-08-25T23:15:48.499Z,55.53
2018-08-25T23:18:19.564Z,55.97
2018-08-25T23:20:49.345Z,55.76
2018-08-25T23:23:18.835Z,55.79
2018-08-25T23:25:55.413Z,55.34
2018-08-25T23:28:31.900Z,55.09
2018-08-25T23:31:01.440Z,55.20
2018-08-25T23:33:31.274Z,57.58
2018-08-25T23:36:03.507Z,58.66
2018-08-25T23:38:40.603Z,59.18
2018-08-25T23:41:11.926Z,58.10
2018-08-25T23:43:42.153Z,58.02
2018-08-25T23:46:11.873Z,58.35
2018-08-25T23:48:45.655Z,57.70
2018-08-25T23:51:16.615Z,57.54
2018-08-25T23:53:46.577Z,57.22
2018-08-25T23:56:16.845Z,57.64
2018-08-25T23:58:46.309Z,58.08
